Time;durP1;ratioP1;P1;durP2;ratioP2;P2;SDS_P1;SDS_P2;PMS_P1;PMS_P2;Temp;Humidity;BMP_temperature;BMP_pressure;BME280_temperature;BME280_humidity;BME280_pressure;Samples;Min_cycle;Max_cycle;Signal;HPM_P1;HPM_P2
2022/11/11 00:01:58;;;;;;;5.63;2.80;;;15.50;99.90;;;;;;7530975;77;26314;-66
2022/11/11 00:12:00;;;;;;;4.93;2.70;;;15.50;99.90;;;;;;7543489;77;26395;-66
2022/11/11 00:32:23;;;;;;;5.20;2.70;;;15.60;99.90;;;;;;7495496;77;26341;-66
2022/11/11 00:42:26;;;;;;;3.77;2.50;;;15.50;99.90;;;;;;7505327;77;26301;-66
2022/11/11 00:52:28;;;;;;;4.80;2.60;;;15.50;99.90;;;;;;7493405;77;26388;-67
2022/11/11 01:02:31;;;;;;;3.17;2.30;;;15.50;99.90;;;;;;7512210;77;26274;-66
2022/11/11 01:12:33;;;;;;;3.97;2.23;;;15.50;99.90;;;;;;7517181;77;26343;-66
2022/11/11 01:22:36;;;;;;;4.80;2.57;;;15.40;99.90;;;;;;7521038;77;26366;-67
2022/11/11 01:32:38;;;;;;;4.00;2.40;;;15.40;99.90;;;;;;7505072;77;26854;-67
2022/11/11 01:42:49;;;;;;;4.67;2.87;;;15.30;99.90;;;;;;7526151;79;26282;-67
2022/11/11 01:52:51;;;;;;;4.83;2.57;;;15.40;99.90;;;;;;7539974;77;26275;-67
2022/11/11 02:02:59;;;;;;;4.83;2.80;;;15.30;99.90;;;;;;7531455;77;26397;-67
2022/11/11 02:23:41;;;;;;;3.73;2.50;;;15.30;99.90;;;;;;7536546;77;26323;-67
2022/11/11 02:33:44;;;;;;;8.37;2.70;;;15.10;99.90;;;;;;7504258;77;26317;-66
2022/11/11 02:43:46;;;;;;;6.50;2.53;;;15.20;99.90;;;;;;7544131;77;26404;-66
2022/11/11 02:53:49;;;;;;;2.67;2.03;;;15.00;99.90;;;;;;7542442;77;26925;-67
2022/11/11 03:03:51;;;;;;;4.33;2.60;;;15.20;99.90;;;;;;7531425;78;26281;-66
2022/11/11 03:13:56;;;;;;;8.27;2.70;;;15.10;99.90;;;;;;7538734;77;26422;-66
2022/11/11 03:23:58;;;;;;;4.03;2.63;;;14.90;99.90;;;;;;7545609;77;26360;-66
2022/11/11 03:34:22;;;;;;;4.97;2.70;;;15.00;99.90;;;;;;7484480;77;26422;-67
2022/11/11 03:44:05;;;;;;;2.67;2.07;;;15.10;99.90;;;;;;7498309;77;26382;-67
2022/11/11 03:54:08;;;;;;;3.63;2.40;;;15.00;99.90;;;;;;7529180;77;26692;-67
2022/11/11 04:35:13;;;;;;;3.53;2.43;;;14.70;99.90;;;;;;7525829;77;26792;-68
2022/11/11 04:45:27;;;;;;;5.50;2.60;;;14.90;99.90;;;;;;7530310;77;26764;-67
2022/11/11 05:26:39;;;;;;;2.70;2.20;;;14.80;99.90;;;;;;7501712;77;26328;-67
2022/11/11 05:36:41;;;;;;;4.17;2.07;;;14.60;99.90;;;;;;7515527;77;26779;-68
2022/11/11 05:46:44;;;;;;;4.23;2.13;;;14.70;99.90;;;;;;7525053;77;26357;-68
2022/11/11 05:56:47;;;;;;;2.60;1.83;;;14.70;99.90;;;;;;7506445;77;26368;-66
2022/11/11 06:06:49;;;;;;;4.97;2.07;;;14.60;99.90;;;;;;7500104;77;26332;-67
2022/11/11 06:16:52;;;;;;;3.57;2.43;;;14.50;99.90;;;;;;7525230;77;26278;-66
2022/11/11 06:26:55;;;;;;;2.73;2.00;;;14.50;99.90;;;;;;7518742;77;26386;-67
2022/11/11 06:36:58;;;;;;;2.90;2.10;;;14.50;99.90;;;;;;7531100;79;26617;-67
2022/11/11 06:47:00;;;;;;;3.63;2.30;;;14.40;99.90;;;;;;7519422;79;26991;-67
2022/11/11 06:57:03;;;;;;;3.43;2.03;;;14.50;99.90;;;;;;7495220;77;26304;-66
2022/11/11 07:07:06;;;;;;;5.93;2.40;;;14.40;99.90;;;;;;7492745;77;26269;-66
2022/11/11 07:17:08;;;;;;;2.73;1.97;;;14.30;99.90;;;;;;7524173;77;26475;-66
2022/11/11 07:27:11;;;;;;;3.30;2.00;;;14.40;99.90;;;;;;7516448;79;26309;-65
2022/11/11 07:37:13;;;;;;;4.93;2.43;;;14.50;99.90;;;;;;7513053;77;26307;-66
2022/11/11 07:47:16;;;;;;;2.40;2.20;;;14.40;99.90;;;;;;7513539;77;27022;-63
2022/11/11 07:57:18;;;;;;;4.60;2.93;;;14.40;99.90;;;;;;7487589;77;26585;-67
2022/11/11 08:07:21;;;;;;;6.73;3.00;;;14.30;99.90;;;;;;7489108;77;26321;-67
2022/11/11 08:17:23;;;;;;;3.33;2.40;;;14.50;99.90;;;;;;7492845;77;26387;-67
2022/11/11 08:27:26;;;;;;;3.90;2.60;;;14.40;99.90;;;;;;7480482;77;26339;-66
2022/11/11 08:37:29;;;;;;;3.43;2.50;;;14.40;99.90;;;;;;7490073;77;26332;-67
2022/11/11 08:47:31;;;;;;;3.73;2.60;;;14.40;99.90;;;;;;7538207;77;26266;-65
2022/11/11 08:57:34;;;;;;;4.23;2.87;;;14.60;99.90;;;;;;7498762;77;26366;-65
2022/11/11 09:07:36;;;;;;;4.03;3.03;;;14.70;99.90;;;;;;7499690;77;26789;-67
2022/11/11 09:17:39;;;;;;;4.33;2.70;;;14.70;99.90;;;;;;7526868;77;26286;-65
2022/11/11 09:27:42;;;;;;;4.93;2.57;;;14.90;99.90;;;;;;7518579;77;26387;-65
2022/11/11 09:37:53;;;;;;;5.87;3.90;;;15.00;99.90;;;;;;7534549;77;26387;-67
2022/11/11 09:48:15;;;;;;;3.57;2.77;;;15.30;99.90;;;;;;7512463;77;26351;-65
2022/11/11 09:58:42;;;;;;;2.87;2.43;;;15.30;99.90;;;;;;7472612;77;26800;-65
2022/11/11 10:09:01;;;;;;;3.50;2.00;;;15.40;99.90;;;;;;7510825;77;26746;-65
2022/11/11 10:19:12;;;;;;;5.07;2.73;;;15.50;99.90;;;;;;7506777;77;26305;-65
2022/11/11 10:29:19;;;;;;;3.00;2.50;;;15.60;99.90;;;;;;7502820;77;26276;-65
2022/11/11 10:39:31;;;;;;;2.77;2.07;;;15.50;99.90;;;;;;7498765;77;26306;-67
2022/11/11 10:49:41;;;;;;;2.53;2.33;;;15.60;99.90;;;;;;7493397;77;26305;-65
2022/11/11 10:59:55;;;;;;;2.87;1.77;;;15.70;99.90;;;;;;7497963;77;26788;-67
2022/11/11 11:10:03;;;;;;;3.47;1.90;;;15.70;99.90;;;;;;7502754;77;26298;-67
2022/11/11 11:20:22;;;;;;;3.20;2.00;;;15.70;99.90;;;;;;7540118;77;26285;-64
2022/11/11 11:30:25;;;;;;;3.03;1.77;;;15.70;99.90;;;;;;7507460;77;26288;-65
2022/11/11 11:40:29;;;;;;;3.87;2.60;;;15.70;99.90;;;;;;7536355;77;26297;-65
2022/11/11 11:50:45;;;;;;;3.17;2.30;;;15.70;99.90;;;;;;7491309;79;26266;-67
2022/11/11 12:01:15;;;;;;;3.80;1.80;;;15.70;99.90;;;;;;7504083;77;26297;-67
2022/11/11 12:11:41;;;;;;;5.30;1.90;;;15.60;99.90;;;;;;7359042;77;26270;-65
2022/11/11 12:21:49;;;;;;;2.47;1.70;;;15.60;99.90;;;;;;7533770;77;26312;-67
2022/11/11 12:31:55;;;;;;;3.17;1.87;;;15.70;99.90;;;;;;7506114;79;27230;-66
2022/11/11 12:42:12;;;;;;;2.43;1.70;;;15.70;99.90;;;;;;7476157;77;26269;-66
2022/11/11 12:52:38;;;;;;;2.77;1.90;;;15.70;99.90;;;;;;7491459;77;26368;-66
2022/11/11 13:03:06;;;;;;;3.83;2.30;;;15.60;99.90;;;;;;7504959;77;26394;-65
2022/11/11 13:13:14;;;;;;;6.50;1.80;;;15.80;99.90;;;;;;7498714;77;27564;-67
2022/11/11 13:23:17;;;;;;;2.93;1.80;;;15.60;99.90;;;;;;7508172;77;26312;-67
2022/11/11 13:33:22;;;;;;;2.63;1.50;;;15.60;99.90;;;;;;7491026;77;26297;-65
2022/11/11 13:43:27;;;;;;;2.87;1.80;;;15.70;99.90;;;;;;7497199;79;26877;-65
2022/11/11 13:53:35;;;;;;;3.27;1.83;;;15.80;99.90;;;;;;7492882;77;26337;-65
2022/11/11 14:03:47;;;;;;;1.57;1.40;;;15.80;99.90;;;;;;7489706;77;26823;-65
2022/11/11 14:13:53;;;;;;;4.17;1.73;;;15.70;99.90;;;;;;7489327;79;26321;-65
2022/11/11 14:23:56;;;;;;;2.40;1.60;;;15.60;99.90;;;;;;7474227;77;26337;-66
2022/11/11 14:34:14;;;;;;;2.37;1.77;;;15.60;99.90;;;;;;7464247;77;26439;-65
2022/11/11 14:44:28;;;;;;;3.10;1.90;;;15.80;99.90;;;;;;7454697;79;26391;-66
2022/11/11 14:54:37;;;;;;;4.13;1.63;;;15.70;99.90;;;;;;7483439;79;26953;-66
2022/11/11 15:04:41;;;;;;;3.77;2.00;;;15.60;99.90;;;;;;7486841;77;26321;-66
2022/11/11 15:14:55;;;;;;;4.07;2.20;;;15.60;99.90;;;;;;7461633;79;26368;-66
2022/11/11 15:35:47;;;;;;;7.07;2.80;;;15.60;99.90;;;;;;7492935;77;26450;-67
2022/11/11 15:45:53;;;;;;;6.27;3.83;;;15.50;99.90;;;;;;7527954;77;26402;-66
2022/11/11 15:55:59;;;;;;;6.93;3.00;;;15.60;99.90;;;;;;7559837;78;26403;-66
2022/11/11 16:06:04;;;;;;;3.57;2.27;;;15.50;99.90;;;;;;7563176;77;26384;-65
2022/11/11 16:16:12;;;;;;;3.73;2.20;;;15.40;99.90;;;;;;7542486;77;26789;-66
2022/11/11 16:26:16;;;;;;;4.73;2.97;;;15.40;99.90;;;;;;7546435;77;26320;-66
2022/11/11 16:36:18;;;;;;;5.40;3.00;;;15.50;99.90;;;;;;7522556;77;26818;-65
2022/11/11 16:46:36;;;;;;;6.13;3.17;;;15.40;99.90;;;;;;7518993;77;26417;-66
2022/11/11 16:56:44;;;;;;;4.63;3.13;;;15.50;99.90;;;;;;7520791;77;26343;-66
2022/11/11 17:06:58;;;;;;;5.83;3.13;;;15.40;99.90;;;;;;7553095;77;26321;-66
2022/11/11 17:17:02;;;;;;;9.37;3.33;;;15.30;99.90;;;;;;7519014;77;26422;-66
2022/11/11 17:27:05;;;;;;;4.20;2.87;;;15.20;99.90;;;;;;7546885;77;26388;-66
2022/11/11 17:37:07;;;;;;;8.47;3.57;;;15.30;99.90;;;;;;7504310;77;26285;-66
2022/11/11 17:47:10;;;;;;;6.23;3.77;;;15.30;99.90;;;;;;7547102;77;26328;-65
2022/11/11 17:57:12;;;;;;;6.23;2.90;;;15.20;99.90;;;;;;7564573;77;26372;-65
2022/11/11 18:07:15;;;;;;;5.47;3.00;;;15.10;99.90;;;;;;7569333;78;26872;-66
2022/11/11 18:17:17;;;;;;;4.83;2.83;;;15.10;99.90;;;;;;7573122;77;26308;-66
2022/11/11 18:27:20;;;;;;;3.60;2.50;;;15.00;99.90;;;;;;7573464;78;26329;-67
2022/11/11 18:37:22;;;;;;;4.70;2.87;;;15.20;99.90;;;;;;7555396;77;26816;-67
2022/11/11 18:47:25;;;;;;;2.90;2.53;;;15.00;99.90;;;;;;7553126;77;26332;-66
2022/11/11 18:57:27;;;;;;;5.93;2.73;;;15.00;99.90;;;;;;7557805;78;26281;-65
2022/11/11 19:07:30;;;;;;;4.13;2.90;;;14.80;99.90;;;;;;7571929;77;26856;-65
2022/11/11 19:17:33;;;;;;;4.37;2.63;;;14.90;99.90;;;;;;7568972;77;26296;-68
2022/11/11 19:27:35;;;;;;;5.53;2.77;;;14.80;99.90;;;;;;7539225;77;26858;-62
2022/11/11 19:37:37;;;;;;;4.57;3.20;;;14.90;99.90;;;;;;7528124;77;26372;-66
2022/11/11 19:47:40;;;;;;;5.27;2.90;;;14.90;99.90;;;;;;7521880;77;26320;-64
2022/11/11 19:57:42;;;;;;;4.80;2.90;;;14.60;99.90;;;;;;7535426;77;26309;-64
2022/11/11 20:07:46;;;;;;;3.60;2.23;;;14.70;99.90;;;;;;7513677;77;26852;-64
2022/11/11 20:17:49;;;;;;;4.33;2.50;;;14.80;99.90;;;;;;7536709;77;26304;-64
2022/11/11 20:27:53;;;;;;;4.67;2.40;;;14.80;99.90;;;;;;7519053;78;26370;-65
2022/11/11 20:37:55;;;;;;;5.77;2.90;;;14.60;99.90;;;;;;7529225;77;26281;-64
2022/11/11 20:47:58;;;;;;;3.43;2.73;;;14.70;99.90;;;;;;7534216;77;26347;-65
2022/11/11 20:58:00;;;;;;;9.27;4.33;;;14.50;99.90;;;;;;7550234;77;26321;-64
2022/11/11 21:08:03;;;;;;;9.03;4.23;;;14.50;99.90;;;;;;7536463;77;26367;-66
2022/11/11 21:18:05;;;;;;;7.50;4.10;;;14.50;99.90;;;;;;7519374;78;26320;-66
2022/11/11 21:28:08;;;;;;;7.57;3.87;;;14.50;99.90;;;;;;7543823;77;26419;-65
2022/11/11 21:38:10;;;;;;;7.07;3.93;;;14.30;99.90;;;;;;7510065;77;26390;-66
2022/11/11 21:48:13;;;;;;;6.37;3.97;;;14.30;99.90;;;;;;7523187;77;26914;-65
2022/11/11 21:58:15;;;;;;;10.93;3.70;;;14.40;99.90;;;;;;7517679;77;26340;-66
2022/11/11 22:08:18;;;;;;;6.57;3.70;;;14.40;99.90;;;;;;7513652;77;26305;-66
2022/11/11 22:18:20;;;;;;;7.23;3.83;;;14.40;99.90;;;;;;7530145;77;26685;-66
2022/11/11 22:28:23;;;;;;;5.43;3.20;;;14.20;99.90;;;;;;7566263;78;26312;-66
2022/11/11 22:38:26;;;;;;;5.10;3.43;;;14.30;99.90;;;;;;7523438;77;26371;-66
2022/11/11 22:48:28;;;;;;;6.37;3.40;;;14.30;99.90;;;;;;7542504;77;26314;-65
2022/11/11 22:58:32;;;;;;;6.33;2.70;;;14.30;99.90;;;;;;7533130;77;26299;-66
2022/11/11 23:08:35;;;;;;;5.83;3.07;;;14.20;99.90;;;;;;7541460;77;26838;-65
2022/11/11 23:18:38;;;;;;;7.00;3.00;;;14.30;99.90;;;;;;7567808;77;26366;-65
2022/11/11 23:28:42;;;;;;;5.40;2.80;;;14.20;99.90;;;;;;7550792;77;26296;-65
2022/11/11 23:38:44;;;;;;;5.90;3.30;;;14.30;99.90;;;;;;7553097;77;26782;-65
2022/11/11 23:48:47;;;;;;;4.00;2.57;;;14.00;99.90;;;;;;7562775;78;26857;-65
2022/11/11 23:58:49;;;;;;;3.83;2.60;;;14.10;99.90;;;;;;7546031;77;26319;-65
